createdAt,value
2018-09-10T00:00:17.392Z,99.90
2018-09-10T00:02:45.598Z,99.90
2018-09-10T00:05:13.828Z,99.90
2018-09-10T00:07:42.075Z,99.90
2018-09-10T00:10:10.330Z,99.90
2018-09-10T00:12:38.542Z,99.90
2018-09-10T00:15:06.768Z,99.90
2018-09-10T00:17:34.974Z,99.90
2018-09-10T00:20:09.714Z,99.90
2018-09-10T00:22:37.953Z,99.90
2018-09-10T00:25:06.856Z,99.90
2018-09-10T00:27:35.134Z,99.90
2018-09-10T00:30:03.383Z,99.90
2018-09-10T00:32:31.601Z,99.90
2018-09-10T00:34:59.816Z,99.90
2018-09-10T00:37:28.039Z,99.90
2018-09-10T00:39:56.253Z,99.90
2018-09-10T00:42:24.478Z,99.90
2018-09-10T00:44:52.696Z,99.90
2018-09-10T00:47:20.923Z,99.90
2018-09-10T00:49:49.200Z,99.90
2018-09-10T00:52:17.410Z,99.90
2018-09-10T00:54:45.605Z,99.90
2018-09-10T00:57:13.858Z,99.90
2018-09-10T00:59:42.065Z,99.90
2018-09-10T01:02:10.294Z,99.90
2018-09-10T01:04:38.498Z,99.90
2018-09-10T01:07:06.771Z,99.90
2018-09-10T01:09:35.016Z,99.90
2018-09-10T01:12:03.242Z,99.90
2018-09-10T01:14:31.460Z,99.90
2018-09-10T01:16:59.668Z,99.90
2018-09-10T01:19:27.914Z,99.90
2018-09-10T01:21:56.183Z,99.90
2018-09-10T01:24:24.396Z,99.90
2018-09-10T01:26:52.623Z,99.90
2018-09-10T01:29:20.835Z,99.90
2018-09-10T01:31:49.058Z,99.90
2018-09-10T01:34:22.631Z,99.90
2018-09-10T01:36:50.970Z,99.90
2018-09-10T01:39:19.154Z,99.90
2018-09-10T01:41:47.364Z,99.90
2018-09-10T01:44:15.546Z,99.90
2018-09-10T01:46:43.743Z,99.90
2018-09-10T01:49:11.935Z,99.90
2018-09-10T01:51:40.147Z,99.90
2018-09-10T01:54:08.334Z,99.90
2018-09-10T01:56:36.539Z,99.90
2018-09-10T01:59:04.943Z,99.90
2018-09-10T02:01:33.146Z,99.90
2018-09-10T02:04:01.335Z,99.90
2018-09-10T02:06:29.527Z,99.90
2018-09-10T02:08:57.744Z,99.90
2018-09-10T02:11:25.958Z,99.90
2018-09-10T02:13:54.168Z,99.90
2018-09-10T02:16:22.364Z,99.90
2018-09-10T02:18:50.578Z,99.90
2018-09-10T02:21:18.769Z,99.90
2018-09-10T02:23:46.963Z,99.90
2018-09-10T02:26:15.160Z,99.90
2018-09-10T02:28:43.366Z,99.90
2018-09-10T02:31:11.572Z,99.90
2018-09-10T02:33:39.776Z,99.90
2018-09-10T02:36:07.962Z,99.90
2018-09-10T02:38:36.254Z,99.90
2018-09-10T02:41:04.367Z,99.90
2018-09-10T02:43:32.572Z,99.90
2018-09-10T02:46:00.762Z,99.90
2018-09-10T02:48:28.963Z,99.90
2018-09-10T02:50:57.169Z,99.90
2018-09-10T02:53:25.373Z,99.90
2018-09-10T02:55:53.563Z,99.90
2018-09-10T02:58:21.806Z,99.90
2018-09-10T03:00:49.997Z,99.90
2018-09-10T03:03:18.199Z,99.90
2018-09-10T03:05:46.379Z,99.90
2018-09-10T03:08:14.579Z,99.90
2018-09-10T03:10:42.762Z,99.90
2018-09-10T03:13:10.968Z,99.90
2018-09-10T03:15:39.149Z,99.90
2018-09-10T03:18:07.380Z,99.90
2018-09-10T03:20:35.546Z,99.90
2018-09-10T03:23:03.723Z,99.90
2018-09-10T03:25:31.927Z,99.90
2018-09-10T03:28:00.124Z,99.90
2018-09-10T03:30:28.339Z,99.90
2018-09-10T03:32:56.525Z,99.90
2018-09-10T03:35:24.735Z,99.90
2018-09-10T03:37:52.926Z,99.90
2018-09-10T03:40:21.190Z,99.90
2018-09-10T03:42:49.369Z,99.90
2018-09-10T03:45:24.158Z,99.90
2018-09-10T03:47:52.343Z,99.90
2018-09-10T03:50:20.555Z,99.90
2018-09-10T03:52:48.754Z,99.90
2018-09-10T03:55:16.959Z,99.90
2018-09-10T03:57:45.154Z,99.90
2018-09-10T04:00:13.347Z,99.90
2018-09-10T04:02:41.540Z,99.90
2018-09-10T04:05:09.746Z,99.90
2018-09-10T04:07:38.303Z,99.90
2018-09-10T04:10:06.534Z,99.90
2018-09-10T04:12:34.721Z,99.90
2018-09-10T04:15:02.943Z,99.90
2018-09-10T04:17:31.175Z,99.90
2018-09-10T04:20:04.734Z,99.90
2018-09-10T04:22:32.932Z,99.90
2018-09-10T04:25:01.155Z,99.90
2018-09-10T04:27:29.355Z,99.90
2018-09-10T04:29:57.533Z,99.90
2018-09-10T04:32:25.725Z,99.90
2018-09-10T04:34:53.915Z,99.90
2018-09-10T04:37:22.150Z,99.90
2018-09-10T04:39:50.356Z,99.90
2018-09-10T04:44:53.170Z,99.90
2018-09-10T04:47:21.395Z,99.90
2018-09-10T04:49:49.666Z,99.90
2018-09-10T04:52:17.867Z,99.90
2018-09-10T04:54:46.119Z,99.90
2018-09-10T04:57:14.329Z,99.90
2018-09-10T04:59:42.605Z,99.90
2018-09-10T05:02:11.055Z,99.90
2018-09-10T05:04:39.321Z,99.90
2018-09-10T05:07:07.524Z,99.90
2018-09-10T05:09:35.739Z,99.90
2018-09-10T05:12:03.974Z,99.90
2018-09-10T05:14:32.197Z,99.90
2018-09-10T05:17:02.034Z,99.90
2018-09-10T05:19:31.080Z,99.90
2018-09-10T05:21:59.389Z,99.90
2018-09-10T05:24:27.597Z,99.90
2018-09-10T05:26:55.853Z,99.90
2018-09-10T05:29:24.236Z,99.90
2018-09-10T05:31:52.464Z,99.90
2018-09-10T05:34:20.671Z,99.90
2018-09-10T05:36:48.878Z,99.90
2018-09-10T05:39:17.086Z,99.90
2018-09-10T05:41:45.393Z,99.90
2018-09-10T05:44:13.511Z,99.90
2018-09-10T05:46:41.701Z,99.90
2018-09-10T05:49:09.913Z,99.90
2018-09-10T05:51:38.110Z,99.90
2018-09-10T05:54:06.387Z,99.90
2018-09-10T05:56:34.592Z,99.90
2018-09-10T05:59:02.784Z,99.90
2018-09-10T06:01:37.469Z,99.90
2018-09-10T06:04:06.303Z,99.90
2018-09-10T06:06:34.513Z,99.90
2018-09-10T06:09:02.787Z,99.90
2018-09-10T06:11:30.974Z,99.90
2018-09-10T06:13:59.221Z,99.90
2018-09-10T06:16:27.438Z,99.90
2018-09-10T06:18:55.642Z,99.90
2018-09-10T06:21:23.827Z,99.90
2018-09-10T06:23:52.026Z,99.90
2018-09-10T06:26:20.211Z,99.90
2018-09-10T06:28:48.704Z,99.90
2018-09-10T06:31:16.890Z,99.90
2018-09-10T06:33:45.096Z,99.90
2018-09-10T06:36:13.316Z,99.90
2018-09-10T06:38:41.827Z,99.90
2018-09-10T06:41:10.031Z,99.90
2018-09-10T06:43:38.270Z,99.90
2018-09-10T06:46:06.823Z,99.90
2018-09-10T06:48:35.650Z,99.90
2018-09-10T06:51:05.449Z,99.90
2018-09-10T06:53:33.989Z,99.90
2018-09-10T06:56:03.326Z,99.90
2018-09-10T06:58:31.542Z,99.90
2018-09-10T07:00:59.983Z,99.90
2018-09-10T07:03:28.257Z,99.90
2018-09-10T07:05:56.451Z,99.90
2018-09-10T07:08:24.654Z,99.90
2018-09-10T07:10:53.127Z,99.90
2018-09-10T07:13:21.319Z,99.90
2018-09-10T07:15:49.677Z,99.90
2018-09-10T07:18:17.875Z,99.90
2018-09-10T07:20:46.073Z,99.90
2018-09-10T07:23:14.512Z,99.90
2018-09-10T07:25:42.719Z,99.90
2018-09-10T07:28:10.906Z,99.90
2018-09-10T07:30:39.104Z,99.90
2018-09-10T07:33:07.288Z,99.90
2018-09-10T07:35:35.519Z,99.90
2018-09-10T07:38:03.719Z,99.90
2018-09-10T07:40:31.936Z,99.90
2018-09-10T07:43:00.132Z,99.90
2018-09-10T07:45:28.896Z,99.90
2018-09-10T07:47:57.390Z,99.90
2018-09-10T07:50:25.598Z,99.90
2018-09-10T07:52:53.786Z,99.90
2018-09-10T07:55:21.981Z,99.90
2018-09-10T07:57:50.286Z,99.90
2018-09-10T08:00:18.498Z,99.90
2018-09-10T08:02:46.698Z,99.90
2018-09-10T08:05:14.916Z,98.50
2018-09-10T08:07:43.097Z,97.30
2018-09-10T08:10:11.294Z,94.50
2018-09-10T08:12:39.511Z,93.80
2018-09-10T08:15:07.727Z,93.50
2018-09-10T08:17:35.930Z,92.50
2018-09-10T08:20:04.614Z,92.00
2018-09-10T08:22:32.827Z,90.40
2018-09-10T08:25:01.046Z,91.30
2018-09-10T08:27:29.250Z,92.00
2018-09-10T08:29:57.446Z,91.60
2018-09-10T08:32:25.685Z,92.90
2018-09-10T08:34:53.935Z,93.80
2018-09-10T08:37:22.133Z,94.10
2018-09-10T08:39:50.328Z,92.50
2018-09-10T08:42:18.537Z,93.80
2018-09-10T08:44:46.740Z,93.00
2018-09-10T08:47:15.185Z,92.70
2018-09-10T08:49:43.393Z,92.20
2018-09-10T08:52:11.614Z,92.00
2018-09-10T08:54:40.092Z,90.10
2018-09-10T08:57:08.019Z,89.90
2018-09-10T08:59:36.224Z,87.30
2018-09-10T09:02:04.434Z,86.30
2018-09-10T09:04:32.631Z,83.00
2018-09-10T09:07:00.827Z,80.20
2018-09-10T09:09:29.020Z,82.80
2018-09-10T09:11:57.209Z,82.30
2018-09-10T09:14:25.403Z,81.50
2018-09-10T09:16:53.598Z,80.70
2018-09-10T09:19:21.859Z,78.90
2018-09-10T09:21:50.089Z,78.70
2018-09-10T09:24:18.296Z,77.50
2018-09-10T09:26:46.495Z,77.30
2018-09-10T09:29:14.721Z,77.90
2018-09-10T09:31:42.931Z,77.60
2018-09-10T09:34:11.134Z,74.30
2018-09-10T09:36:44.947Z,73.30
2018-09-10T09:39:18.604Z,73.10
2018-09-10T09:41:52.253Z,73.20
2018-09-10T09:44:25.945Z,71.20
2018-09-10T09:46:54.138Z,70.60
2018-09-10T09:49:22.338Z,68.20
2018-09-10T09:51:50.543Z,68.50
2018-09-10T09:54:25.257Z,66.80
2018-09-10T09:56:54.282Z,65.30
2018-09-10T09:59:22.475Z,62.00
2018-09-10T10:01:56.862Z,61.60
2018-09-10T10:04:25.096Z,61.00
2018-09-10T10:06:53.303Z,61.00
2018-09-10T10:09:21.503Z,59.30
2018-09-10T10:11:49.815Z,63.30
2018-09-10T10:14:17.910Z,61.70
2018-09-10T10:16:46.124Z,60.80
2018-09-10T10:19:14.310Z,60.40
2018-09-10T10:21:42.510Z,59.90
2018-09-10T10:24:10.705Z,61.10
2018-09-10T10:26:38.915Z,57.90
2018-09-10T10:29:07.116Z,59.80
2018-09-10T10:31:35.314Z,59.50
2018-09-10T10:34:03.518Z,60.00
2018-09-10T10:36:31.752Z,60.10
2018-09-10T10:38:59.971Z,59.30
2018-09-10T10:41:28.183Z,58.70
2018-09-10T10:43:56.396Z,61.20
2018-09-10T10:46:24.613Z,60.20
2018-09-10T10:48:52.826Z,62.60
2018-09-10T10:51:21.039Z,60.40
2018-09-10T10:53:49.347Z,59.60
2018-09-10T10:56:17.512Z,58.80
2018-09-10T10:58:45.756Z,59.40
2018-09-10T11:01:13.961Z,61.60
2018-09-10T11:03:42.202Z,58.80
2018-09-10T11:06:10.423Z,60.10
2018-09-10T11:08:38.634Z,59.60
2018-09-10T11:11:06.852Z,58.10
2018-09-10T11:13:35.104Z,54.30
2018-09-10T11:16:03.309Z,52.20
2018-09-10T11:18:31.542Z,52.00
2018-09-10T11:20:59.791Z,49.00
2018-09-10T11:23:28.258Z,49.40
2018-09-10T11:25:56.488Z,47.70
2018-09-10T11:28:24.712Z,49.40
2018-09-10T11:30:52.931Z,45.30
2018-09-10T11:33:21.229Z,45.90
2018-09-10T11:35:49.455Z,46.60
2018-09-10T11:38:17.693Z,47.20
2018-09-10T11:40:45.923Z,49.00
2018-09-10T11:43:14.139Z,47.90
2018-09-10T11:45:42.368Z,46.20
2018-09-10T11:48:10.571Z,44.60
2018-09-10T11:50:38.786Z,48.10
2018-09-10T11:53:06.998Z,48.20
2018-09-10T11:55:35.314Z,45.50
2018-09-10T11:58:03.487Z,45.40
2018-09-10T12:00:31.731Z,44.50
2018-09-10T12:02:59.941Z,46.10
2018-09-10T12:05:28.152Z,44.00
2018-09-10T12:07:56.358Z,44.50
2018-09-10T12:10:24.578Z,45.30
2018-09-10T12:12:52.797Z,42.40
2018-09-10T12:15:21.034Z,44.20
2018-09-10T12:17:49.242Z,43.70
2018-09-10T12:20:17.489Z,42.30
2018-09-10T12:22:45.699Z,44.50
2018-09-10T12:25:13.942Z,43.90
2018-09-10T12:27:42.210Z,43.30
2018-09-10T12:30:10.412Z,44.10
2018-09-10T12:32:38.624Z,43.50
2018-09-10T12:35:06.961Z,46.00
2018-09-10T12:37:35.165Z,44.00
2018-09-10T12:40:03.377Z,45.10
2018-09-10T12:42:31.602Z,45.50
2018-09-10T12:44:59.798Z,44.20
2018-09-10T12:47:27.982Z,44.60
2018-09-10T12:49:56.183Z,44.30
2018-09-10T12:52:24.369Z,46.30
2018-09-10T12:54:52.566Z,44.50
2018-09-10T12:57:20.755Z,43.90
2018-09-10T12:59:48.953Z,45.00
2018-09-10T13:02:17.154Z,43.10
2018-09-10T13:04:45.361Z,46.10
2018-09-10T13:07:13.588Z,45.50
2018-09-10T13:09:41.778Z,47.50
2018-09-10T13:12:09.984Z,45.30
2018-09-10T13:14:38.175Z,45.80
2018-09-10T13:17:06.378Z,46.00
2018-09-10T13:19:34.566Z,46.00
2018-09-10T13:22:02.753Z,45.20
2018-09-10T13:24:30.951Z,45.90
2018-09-10T13:26:59.155Z,42.40
2018-09-10T13:29:27.364Z,42.20
2018-09-10T13:31:55.583Z,42.10
2018-09-10T13:34:23.778Z,41.70
2018-09-10T13:36:52.222Z,41.50
2018-09-10T13:39:20.459Z,41.00
2018-09-10T13:41:48.758Z,42.10
2018-09-10T13:44:16.979Z,41.60
2018-09-10T13:46:45.207Z,40.90
2018-09-10T13:49:13.415Z,41.10
2018-09-10T13:51:42.195Z,40.50
2018-09-10T13:54:10.479Z,39.10
2018-09-10T13:56:38.668Z,41.60
2018-09-10T13:59:06.974Z,40.30
2018-09-10T14:01:35.238Z,40.90
2018-09-10T14:04:03.474Z,40.80
2018-09-10T14:06:31.728Z,39.40
2018-09-10T14:08:59.968Z,38.80
2018-09-10T14:11:28.210Z,38.50
2018-09-10T14:13:56.425Z,37.80
2018-09-10T14:16:24.651Z,38.70
2018-09-10T14:18:52.881Z,41.80
2018-09-10T14:21:21.116Z,41.10
2018-09-10T14:23:49.341Z,40.70
2018-09-10T14:26:17.571Z,39.40
2018-09-10T14:28:45.801Z,38.20
2018-09-10T14:31:14.034Z,39.60
2018-09-10T14:33:42.251Z,41.90
2018-09-10T14:36:10.499Z,39.60
2018-09-10T14:38:38.747Z,40.90
2018-09-10T14:41:06.967Z,39.80
2018-09-10T14:43:35.211Z,40.40
2018-09-10T14:46:03.465Z,39.80
2018-09-10T14:48:31.718Z,40.90
2018-09-10T14:50:59.940Z,40.70
2018-09-10T14:53:28.213Z,39.70
2018-09-10T14:55:56.442Z,38.50
2018-09-10T14:58:24.740Z,39.60
2018-09-10T15:00:52.895Z,39.30
2018-09-10T15:03:21.123Z,40.80
2018-09-10T15:05:49.356Z,39.40
2018-09-10T15:08:17.584Z,40.20
2018-09-10T15:10:45.793Z,40.50
2018-09-10T15:13:14.027Z,40.80
2018-09-10T15:15:42.266Z,40.70
2018-09-10T15:18:10.530Z,39.80
2018-09-10T15:20:38.723Z,42.20
2018-09-10T15:23:06.954Z,42.60
2018-09-10T15:25:35.174Z,41.40
2018-09-10T15:28:03.416Z,40.90
2018-09-10T15:30:31.622Z,42.60
2018-09-10T15:32:59.845Z,44.20
2018-09-10T15:35:28.088Z,44.50
2018-09-10T15:37:56.303Z,42.60
2018-09-10T15:40:24.519Z,41.40
2018-09-10T15:42:52.728Z,43.40
2018-09-10T15:45:20.983Z,46.80
2018-09-10T15:47:49.169Z,49.30
2018-09-10T15:50:17.373Z,51.20
2018-09-10T15:52:45.562Z,52.00
2018-09-10T15:55:13.775Z,47.90
2018-09-10T15:57:41.971Z,46.30
2018-09-10T16:00:10.263Z,49.10
2018-09-10T16:02:38.433Z,46.50
2018-09-10T16:05:06.664Z,48.20
2018-09-10T16:07:34.853Z,48.90
2018-09-10T16:10:03.055Z,50.00
2018-09-10T16:12:31.250Z,48.30
2018-09-10T16:14:59.469Z,46.50
2018-09-10T16:17:27.665Z,51.30
2018-09-10T16:19:55.864Z,52.20
2018-09-10T16:22:24.051Z,54.00
2018-09-10T16:24:52.242Z,56.90
2018-09-10T16:27:20.505Z,59.40
2018-09-10T16:29:48.649Z,59.60
2018-09-10T16:32:16.845Z,60.20
2018-09-10T16:34:45.052Z,59.90
2018-09-10T16:37:13.357Z,63.00
2018-09-10T16:39:41.548Z,65.00
2018-09-10T16:42:09.754Z,65.80
2018-09-10T16:44:37.946Z,66.40
2018-09-10T16:47:06.185Z,64.30
2018-09-10T16:49:34.377Z,63.60
2018-09-10T16:52:02.590Z,63.20
2018-09-10T16:54:30.880Z,58.10
2018-09-10T16:56:59.009Z,61.40
2018-09-10T16:59:27.224Z,62.50
2018-09-10T17:01:55.420Z,64.60
2018-09-10T17:04:23.622Z,65.30
2018-09-10T17:06:51.810Z,61.80
2018-09-10T17:09:20.019Z,62.80
2018-09-10T17:11:48.239Z,62.80
2018-09-10T17:14:16.446Z,62.90
2018-09-10T17:16:44.647Z,62.20
2018-09-10T17:19:12.914Z,61.70
2018-09-10T17:21:41.190Z,61.90
2018-09-10T17:24:09.406Z,62.20
2018-09-10T17:26:37.608Z,62.30
2018-09-10T17:29:05.883Z,62.50
2018-09-10T17:31:34.087Z,62.30
2018-09-10T17:34:02.292Z,63.00
2018-09-10T17:36:30.523Z,63.20
2018-09-10T17:38:58.714Z,63.00
2018-09-10T17:41:26.948Z,63.40
2018-09-10T17:43:55.172Z,63.60
2018-09-10T17:46:23.389Z,63.80
2018-09-10T17:48:51.599Z,64.60
2018-09-10T17:51:19.821Z,64.50
2018-09-10T17:53:48.011Z,64.70
2018-09-10T17:56:16.232Z,64.10
2018-09-10T17:58:44.420Z,63.80
2018-09-10T18:01:12.645Z,63.20
2018-09-10T18:03:40.837Z,63.50
2018-09-10T18:06:09.044Z,64.00
2018-09-10T18:08:37.252Z,64.00
2018-09-10T18:11:05.658Z,64.30
2018-09-10T18:13:33.868Z,64.80
2018-09-10T18:16:02.073Z,65.20
2018-09-10T18:18:30.271Z,65.50
2018-09-10T18:20:58.515Z,65.60
2018-09-10T18:23:26.702Z,65.30
2018-09-10T18:25:54.909Z,65.60
2018-09-10T18:28:23.139Z,65.40
2018-09-10T18:30:51.321Z,66.80
2018-09-10T18:33:19.780Z,65.90
2018-09-10T18:35:48.231Z,64.30
2018-09-10T18:38:16.540Z,63.20
2018-09-10T18:40:44.749Z,62.80
2018-09-10T18:43:13.210Z,61.10
2018-09-10T18:45:41.541Z,61.80
2018-09-10T18:48:09.826Z,63.50
2018-09-10T18:50:38.023Z,66.00
2018-09-10T18:53:06.936Z,68.20
2018-09-10T18:55:35.287Z,68.70
2018-09-10T18:58:03.758Z,71.20
2018-09-10T19:00:32.007Z,71.50
2018-09-10T19:03:00.207Z,67.60
2018-09-10T19:05:28.407Z,65.40
2018-09-10T19:07:56.611Z,65.00
2018-09-10T19:10:24.815Z,64.50
2018-09-10T19:12:53.015Z,64.70
2018-09-10T19:15:21.204Z,64.40
2018-09-10T19:17:49.415Z,64.00
2018-09-10T19:20:17.601Z,64.00
2018-09-10T19:22:45.862Z,64.10
2018-09-10T19:25:14.084Z,64.00
2018-09-10T19:27:42.318Z,64.40
2018-09-10T19:30:10.513Z,64.60
2018-09-10T19:32:38.710Z,64.70
2018-09-10T19:35:06.909Z,64.40
2018-09-10T19:37:35.234Z,63.90
2018-09-10T19:40:03.449Z,64.40
2018-09-10T19:42:31.672Z,64.20
2018-09-10T19:44:59.899Z,64.60
2018-09-10T19:47:28.188Z,64.60
2018-09-10T19:49:56.366Z,64.40
2018-09-10T19:52:24.593Z,64.60
2018-09-10T19:54:59.371Z,64.80
2018-09-10T19:57:27.579Z,64.50
2018-09-10T19:59:55.775Z,65.70
2018-09-10T20:02:23.987Z,65.10
2018-09-10T20:04:52.291Z,65.60
2018-09-10T20:07:20.524Z,64.70
2018-09-10T20:09:48.933Z,64.10
2018-09-10T20:12:17.095Z,64.20
2018-09-10T20:14:45.312Z,64.10
2018-09-10T20:17:13.514Z,64.50
2018-09-10T20:19:41.720Z,64.80
2018-09-10T20:22:13.444Z,65.20
2018-09-10T20:24:41.691Z,65.50
2018-09-10T20:27:09.891Z,66.90
2018-09-10T20:29:38.083Z,66.70
2018-09-10T20:32:06.672Z,67.70
2018-09-10T20:34:34.874Z,68.50
2018-09-10T20:37:03.107Z,71.00
2018-09-10T20:39:31.338Z,72.50
2018-09-10T20:41:59.558Z,72.40
2018-09-10T20:44:27.780Z,71.50
2018-09-10T20:46:56.013Z,74.40
2018-09-10T20:49:24.229Z,74.40
2018-09-10T20:51:52.441Z,76.70
2018-09-10T20:54:20.663Z,77.80
2018-09-10T20:56:48.860Z,75.50
2018-09-10T20:59:17.086Z,74.30
2018-09-10T21:01:45.392Z,75.50
2018-09-10T21:04:13.611Z,74.40
2018-09-10T21:06:41.812Z,74.70
2018-09-10T21:09:10.932Z,76.30
2018-09-10T21:11:39.175Z,75.80
2018-09-10T21:14:07.391Z,77.20
2018-09-10T21:16:35.599Z,75.40
2018-09-10T21:19:03.813Z,74.70
2018-09-10T21:21:32.023Z,76.50
2018-09-10T21:24:00.277Z,76.80
2018-09-10T21:26:28.487Z,79.00
2018-09-10T21:28:56.716Z,82.00
2018-09-10T21:31:25.017Z,81.20
2018-09-10T21:33:53.230Z,80.10
2018-09-10T21:36:21.450Z,84.00
2018-09-10T21:38:49.671Z,85.60
2018-09-10T21:41:17.879Z,87.40
2018-09-10T21:43:46.091Z,87.90
2018-09-10T21:46:14.318Z,87.60
2018-09-10T21:48:42.517Z,86.70
2018-09-10T21:51:10.764Z,87.60
2018-09-10T21:53:38.997Z,87.80
2018-09-10T21:56:07.227Z,91.50
2018-09-10T21:58:35.431Z,91.40
2018-09-10T22:01:03.650Z,92.10
2018-09-10T22:03:31.857Z,91.40
2018-09-10T22:06:00.073Z,90.30
2018-09-10T22:08:28.308Z,91.50
2018-09-10T22:10:56.597Z,91.20
2018-09-10T22:13:24.811Z,92.60
2018-09-10T22:15:53.022Z,93.10
2018-09-10T22:18:21.225Z,94.40
2018-09-10T22:20:49.443Z,94.20
2018-09-10T22:23:17.682Z,95.30
2018-09-10T22:25:45.921Z,96.80
2018-09-10T22:28:14.137Z,96.90
2018-09-10T22:30:42.415Z,96.10
2018-09-10T22:33:10.622Z,96.40
2018-09-10T22:35:38.847Z,96.50
2018-09-10T22:38:07.070Z,97.10
2018-09-10T22:40:35.306Z,97.40
2018-09-10T22:43:03.578Z,96.70
2018-09-10T22:45:31.793Z,97.40
2018-09-10T22:48:00.019Z,98.60
2018-09-10T22:50:28.234Z,98.50
2018-09-10T22:52:56.449Z,99.40
2018-09-10T22:55:24.695Z,99.60
2018-09-10T22:57:52.908Z,99.90
2018-09-10T23:00:21.133Z,99.90
2018-09-10T23:02:49.371Z,99.90
2018-09-10T23:05:17.570Z,99.90
2018-09-10T23:07:45.796Z,99.90
2018-09-10T23:10:14.022Z,99.90
2018-09-10T23:12:42.253Z,99.90
2018-09-10T23:15:10.464Z,99.90
2018-09-10T23:17:38.694Z,99.90
2018-09-10T23:20:06.991Z,99.90
2018-09-10T23:22:35.215Z,99.90
2018-09-10T23:25:03.449Z,99.90
2018-09-10T23:27:31.679Z,99.90
2018-09-10T23:29:59.881Z,99.90
2018-09-10T23:32:28.123Z,99.90
2018-09-10T23:34:56.341Z,99.90
2018-09-10T23:37:24.537Z,99.90
2018-09-10T23:39:53.708Z,99.90
2018-09-10T23:42:21.900Z,99.90
2018-09-10T23:44:50.090Z,99.90
2018-09-10T23:47:18.291Z,99.90
2018-09-10T23:49:46.479Z,99.90
2018-09-10T23:52:14.671Z,99.90
2018-09-10T23:54:42.853Z,99.90
2018-09-10T23:57:11.063Z,99.90
2018-09-10T23:59:39.251Z,99.90
